createdAt,value
2023-03-24T00:02:14.279Z,13.99
2023-03-24T00:07:17.237Z,13.96
2023-03-24T00:12:19.400Z,14.01
2023-03-24T00:17:25.745Z,14.22
2023-03-24T00:22:28.790Z,14.08
2023-03-24T00:27:31.842Z,13.98
2023-03-24T00:32:34.026Z,13.79
2023-03-24T00:37:38.003Z,13.82
2023-03-24T00:42:41.869Z,13.50
2023-03-24T00:47:45.194Z,13.56
2023-03-24T00:52:49.463Z,13.69
2023-03-24T00:57:51.746Z,13.60
2023-03-24T01:02:57.782Z,13.66
2023-03-24T01:08:04.196Z,13.51
2023-03-24T01:13:07.127Z,13.20
2023-03-24T01:18:10.134Z,13.04
2023-03-24T01:23:17.838Z,12.86
2023-03-24T01:28:25.166Z,13.04
2023-03-24T01:33:27.578Z,12.91
2023-03-24T01:38:29.752Z,12.96
2023-03-24T01:43:34.035Z,13.03
2023-03-24T01:48:42.377Z,12.96
2023-03-24T01:53:56.313Z,12.88
2023-03-24T01:59:04.055Z,12.85
2023-03-24T02:04:08.317Z,12.97
2023-03-24T02:09:12.828Z,12.95
2023-03-24T02:14:15.002Z,12.40
2023-03-24T02:19:38.493Z,12.41
2023-03-24T02:25:07.398Z,12.35
2023-03-24T02:30:24.622Z,11.94
2023-03-24T02:35:59.539Z,12.07
2023-03-24T02:41:21.956Z,12.06
2023-03-24T02:46:33.614Z,12.04
2023-03-24T02:51:42.668Z,12.07
2023-03-24T02:56:53.395Z,12.25
2023-03-24T03:02:07.597Z,12.26
2023-03-24T03:07:12.022Z,12.24
2023-03-24T03:12:15.632Z,12.10
2023-03-24T03:17:23.842Z,12.13
2023-03-24T03:22:33.352Z,11.98
2023-03-24T03:27:39.448Z,12.02
2023-03-24T03:32:54.693Z,11.76
2023-03-24T03:38:00.814Z,11.76
2023-03-24T03:43:04.911Z,11.76
2023-03-24T03:48:07.299Z,11.76
2023-03-24T03:53:10.365Z,11.89
2023-03-24T03:58:12.973Z,11.81
2023-03-24T04:03:45.657Z,11.63
2023-03-24T04:08:57.176Z,11.73
2023-03-24T04:14:35.133Z,11.77
2023-03-24T04:19:56.194Z,11.85
2023-03-24T04:25:04.333Z,11.88
2023-03-24T04:30:37.621Z,11.74
2023-03-24T04:35:50.003Z,11.81
2023-03-24T04:40:56.016Z,11.92
2023-03-24T04:45:58.304Z,11.87
2023-03-24T04:51:03.843Z,12.05
2023-03-24T04:56:24.221Z,12.00
2023-03-24T05:01:30.813Z,11.93
2023-03-24T05:06:33.797Z,12.02
2023-03-24T05:11:35.969Z,12.17
2023-03-24T05:16:38.330Z,12.06
2023-03-24T05:21:40.595Z,11.71
2023-03-24T05:26:42.747Z,11.79
2023-03-24T05:31:45.443Z,12.08
2023-03-24T05:36:47.601Z,12.27
2023-03-24T05:41:49.815Z,12.31
2023-03-24T05:46:51.905Z,12.44
2023-03-24T05:51:54.073Z,12.49
2023-03-24T05:56:56.401Z,12.26
2023-03-24T06:01:58.790Z,12.54
2023-03-24T06:07:01.235Z,12.70
2023-03-24T06:12:04.797Z,12.94
2023-03-24T06:17:08.521Z,12.93
2023-03-24T06:22:10.762Z,13.01
2023-03-24T06:27:14.564Z,13.19
2023-03-24T06:32:21.723Z,13.32
2023-03-24T06:37:24.436Z,13.50
2023-03-24T06:42:27.487Z,13.55
2023-03-24T06:47:30.094Z,13.76
2023-03-24T06:52:32.324Z,14.05
2023-03-24T06:57:34.497Z,14.20
2023-03-24T07:02:36.723Z,14.46
2023-03-24T07:08:16.733Z,14.48
2023-03-24T07:13:03.645Z,14.40
2023-03-24T07:18:05.942Z,14.57
2023-03-24T07:23:08.369Z,14.96
2023-03-24T07:28:10.805Z,15.03
2023-03-24T07:33:12.984Z,15.18
2023-03-24T07:38:15.144Z,15.25
2023-03-24T07:43:17.535Z,15.19
2023-03-24T07:48:20.536Z,15.31
2023-03-24T07:53:23.548Z,15.34
2023-03-24T07:58:27.231Z,15.73
2023-03-24T08:03:30.129Z,15.88
2023-03-24T08:08:32.561Z,15.92
2023-03-24T08:13:34.785Z,16.17
2023-03-24T08:18:39.160Z,16.35
2023-03-24T08:23:41.822Z,16.30
2023-03-24T08:28:44.107Z,16.43
2023-03-24T08:33:46.576Z,16.70
2023-03-24T08:38:53.039Z,17.01
2023-03-24T08:43:55.158Z,17.46
2023-03-24T08:48:58.397Z,17.30
2023-03-24T08:54:02.033Z,17.52
2023-03-24T08:59:04.927Z,17.57
2023-03-24T09:04:07.057Z,17.52
2023-03-24T09:09:09.190Z,17.65
2023-03-24T09:14:11.288Z,17.80
2023-03-24T09:19:13.489Z,18.17
2023-03-24T09:24:15.996Z,18.35
2023-03-24T09:29:19.195Z,18.65
2023-03-24T09:34:21.936Z,18.77
2023-03-24T09:39:24.214Z,18.93
2023-03-24T09:44:32.016Z,18.73
2023-03-24T09:49:39.016Z,18.63
2023-03-24T09:54:56.574Z,18.70
2023-03-24T09:59:58.923Z,18.83
2023-03-24T10:05:01.256Z,19.21
2023-03-24T10:10:15.509Z,19.19
2023-03-24T10:15:40.381Z,19.65
2023-03-24T10:20:52.017Z,19.50
2023-03-24T10:26:29.560Z,19.61
2023-03-24T10:31:35.264Z,19.87
2023-03-24T10:36:38.773Z,19.90
2023-03-24T10:41:42.701Z,20.34
2023-03-24T10:46:48.634Z,20.03
2023-03-24T10:51:53.153Z,19.59
2023-03-24T10:56:58.468Z,19.70
2023-03-24T11:02:15.937Z,19.90
2023-03-24T11:07:37.659Z,20.28
2023-03-24T11:13:03.224Z,20.54
2023-03-24T11:18:11.213Z,20.90
2023-03-24T11:23:29.962Z,21.30
2023-03-24T11:28:39.096Z,21.67
2023-03-24T11:34:03.198Z,21.81
2023-03-24T11:39:21.712Z,21.85
2023-03-24T11:44:25.967Z,21.96
2023-03-24T11:49:37.252Z,22.12
2023-03-24T11:54:40.043Z,22.37
2023-03-24T12:00:09.257Z,22.42
2023-03-24T12:05:29.328Z,22.42
2023-03-24T12:10:57.292Z,22.46
2023-03-24T12:16:21.937Z,22.51
2023-03-24T12:21:50.244Z,22.58
2023-03-24T12:26:58.819Z,22.90
2023-03-24T12:32:54.420Z,22.55
2023-03-24T12:38:08.988Z,22.84
2023-03-24T12:43:55.260Z,22.84
2023-03-24T12:49:04.181Z,22.99
2023-03-24T12:54:26.315Z,23.17
2023-03-24T12:59:36.796Z,23.56
2023-03-24T13:04:43.061Z,23.71
2023-03-24T13:10:05.397Z,24.09
2023-03-24T13:15:19.143Z,23.75
2023-03-24T13:20:54.180Z,24.19
2023-03-24T13:26:05.191Z,24.41
2023-03-24T13:31:09.853Z,24.61
2023-03-24T13:36:30.438Z,24.81
2023-03-24T13:41:38.018Z,25.06
2023-03-24T13:46:42.121Z,25.24
2023-03-24T13:51:46.794Z,25.41
2023-03-24T13:57:04.121Z,25.69
2023-03-24T14:02:31.833Z,25.85
2023-03-24T14:07:45.172Z,25.60
2023-03-24T14:12:59.336Z,25.68
2023-03-24T14:18:26.265Z,25.72
2023-03-24T14:23:47.132Z,26.02
2023-03-24T14:28:57.812Z,26.18
2023-03-24T14:34:17.619Z,26.55
2023-03-24T14:39:48.008Z,26.76
2023-03-24T14:44:51.577Z,27.09
2023-03-24T14:49:58.003Z,27.47
2023-03-24T14:55:06.329Z,28.41
2023-03-24T15:00:36.975Z,29.36
2023-03-24T15:05:39.200Z,29.15
2023-03-24T15:10:47.305Z,28.91
2023-03-24T15:15:49.683Z,28.70
2023-03-24T15:20:53.364Z,28.13
2023-03-24T15:25:56.351Z,27.76
2023-03-24T15:31:02.637Z,27.83
2023-03-24T15:36:13.636Z,27.85
2023-03-24T15:41:18.197Z,28.31
2023-03-24T15:46:31.983Z,28.13
2023-03-24T15:51:52.136Z,28.13
2023-03-24T15:57:12.251Z,28.25
2023-03-24T16:02:26.471Z,28.30
2023-03-24T16:07:35.893Z,28.78
2023-03-24T16:12:38.376Z,29.09
2023-03-24T16:17:40.925Z,29.08
2023-03-24T16:22:43.085Z,28.40
2023-03-24T16:27:45.476Z,26.81
2023-03-24T16:32:48.063Z,25.47
2023-03-24T16:37:50.896Z,24.42
2023-03-24T16:42:53.808Z,23.62
2023-03-24T16:47:56.090Z,22.92
2023-03-24T16:52:58.336Z,22.67
2023-03-24T16:58:00.809Z,22.25
2023-03-24T17:03:04.733Z,21.92
2023-03-24T17:08:07.227Z,21.37
2023-03-24T17:13:16.919Z,21.02
2023-03-24T17:18:19.978Z,20.87
2023-03-24T17:23:22.316Z,20.76
2023-03-24T17:28:24.437Z,20.49
2023-03-24T17:33:26.590Z,20.40
2023-03-24T17:38:28.866Z,20.21
2023-03-24T17:43:31.566Z,20.01
2023-03-24T17:48:34.871Z,19.93
2023-03-24T17:53:37.080Z,19.53
2023-03-24T17:58:39.308Z,19.43
2023-03-24T18:03:43.241Z,19.32
2023-03-24T18:08:51.628Z,19.17
2023-03-24T18:13:53.765Z,19.11
2023-03-24T18:18:56.106Z,18.88
2023-03-24T18:23:58.585Z,18.73
2023-03-24T18:29:01.174Z,18.43
2023-03-24T18:34:04.291Z,18.52
2023-03-24T18:39:08.996Z,18.55
2023-03-24T18:44:15.555Z,18.43
2023-03-24T18:49:18.045Z,18.31
2023-03-24T18:54:20.133Z,18.10
2023-03-24T18:59:22.427Z,18.14
2023-03-24T19:04:25.734Z,18.04
2023-03-24T19:09:29.304Z,18.07
2023-03-24T19:14:31.940Z,18.08
2023-03-24T19:19:34.210Z,18.11
2023-03-24T19:24:36.466Z,17.95
2023-03-24T19:29:38.630Z,17.80
2023-03-24T19:34:40.718Z,17.78
2023-03-24T19:39:42.899Z,17.75
2023-03-24T19:44:45.203Z,17.78
2023-03-24T19:49:47.810Z,17.76
2023-03-24T19:54:51.131Z,17.88
2023-03-24T19:59:53.380Z,17.78
2023-03-24T20:04:55.758Z,17.51
2023-03-24T20:09:57.979Z,17.67
2023-03-24T20:15:00.076Z,17.53
2023-03-24T20:20:02.349Z,17.37
2023-03-24T20:25:05.207Z,17.27
2023-03-24T20:30:08.726Z,17.41
2023-03-24T20:35:11.619Z,17.38
2023-03-24T20:40:13.860Z,17.36
2023-03-24T20:45:16.303Z,17.24
2023-03-24T20:50:19.469Z,17.31
2023-03-24T20:55:21.943Z,17.15
2023-03-24T21:00:24.678Z,17.09
2023-03-24T21:05:27.557Z,17.08
2023-03-24T21:10:30.452Z,17.03
2023-03-24T21:15:32.562Z,16.86
2023-03-24T21:20:34.790Z,17.05
2023-03-24T21:25:37.831Z,17.04
2023-03-24T21:30:40.277Z,17.01
2023-03-24T21:35:42.448Z,16.71
2023-03-24T21:40:45.093Z,16.77
2023-03-24T21:45:54.120Z,16.72
2023-03-24T21:50:57.842Z,16.85
2023-03-24T21:56:04.916Z,16.71
2023-03-24T22:01:07.707Z,16.69
2023-03-24T22:06:11.235Z,16.56
2023-03-24T22:11:16.469Z,16.60
2023-03-24T22:16:18.666Z,16.57
2023-03-24T22:21:21.555Z,16.38
2023-03-24T22:26:23.804Z,16.45
2023-03-24T22:31:26.432Z,16.46
2023-03-24T22:36:28.573Z,16.26
2023-03-24T22:41:30.711Z,16.29
2023-03-24T22:46:32.830Z,15.93
2023-03-24T22:51:37.185Z,15.71
2023-03-24T22:56:39.382Z,15.42
2023-03-24T23:01:41.889Z,15.26
2023-03-24T23:06:45.932Z,15.31
2023-03-24T23:11:48.007Z,15.18
2023-03-24T23:16:50.227Z,14.90
2023-03-24T23:21:53.393Z,14.90
2023-03-24T23:26:56.380Z,14.87
2023-03-24T23:31:58.614Z,14.77
2023-03-24T23:37:05.362Z,14.83
2023-03-24T23:42:07.500Z,14.64
2023-03-24T23:47:09.600Z,14.56
2023-03-24T23:52:11.866Z,14.54
2023-03-24T23:57:16.220Z,14.35
